Time;durP1;ratioP1;P1;durP2;ratioP2;P2;SDS_P1;SDS_P2;PMS_P1;PMS_P2;Temp;Humidity;BMP_temperature;BMP_pressure;BME280_temperature;BME280_humidity;BME280_pressure;Samples;Min_cycle;Max_cycle;Signal;HPM_P1;HPM_P2
2020/12/01 00:00:06;;;;;;;24.33;17.38;;;5.80;99.90;;;;;;5045278;28;20201;-82
2020/12/01 00:02:32;;;;;;;27.40;21.73;;;5.80;99.90;;;;;;5045891;28;20229;-81
2020/12/01 00:05:00;;;;;;;20.55;18.35;;;5.80;99.90;;;;;;5045657;28;20204;-79
2020/12/01 00:07:26;;;;;;;23.42;17.55;;;5.80;99.90;;;;;;5044826;28;20216;-82
2020/12/01 00:09:53;;;;;;;20.02;17.05;;;5.80;99.90;;;;;;5046910;28;20197;-82
2020/12/01 00:12:19;;;;;;;28.85;21.65;;;5.90;99.90;;;;;;5046945;28;20273;-82
2020/12/01 00:14:47;;;;;;;25.20;19.73;;;5.90;99.90;;;;;;5045338;28;20200;-80
2020/12/01 00:17:13;;;;;;;19.88;17.73;;;5.90;99.90;;;;;;5046796;28;20204;-81
2020/12/01 00:19:39;;;;;;;26.77;19.70;;;5.90;99.90;;;;;;5046517;28;20200;-81
2020/12/01 00:22:06;;;;;;;20.70;17.00;;;5.90;99.90;;;;;;5046357;28;20939;-82
2020/12/01 00:24:32;;;;;;;28.60;21.08;;;6.00;99.90;;;;;;5054182;28;20200;-81
2020/12/01 00:27:00;;;;;;;25.35;20.52;;;6.00;99.90;;;;;;5030687;28;20228;-81
2020/12/01 00:29:26;;;;;;;26.10;22.10;;;6.00;99.90;;;;;;5037877;28;20211;-83
2020/12/01 00:31:54;;;;;;;24.10;18.05;;;5.90;99.90;;;;;;5045989;28;20231;-81
2020/12/01 00:34:20;;;;;;;25.20;19.55;;;6.00;99.90;;;;;;5045872;28;20701;-82
2020/12/01 00:36:47;;;;;;;31.33;24.45;;;5.90;99.90;;;;;;5046776;28;20204;-82
2020/12/01 00:39:13;;;;;;;31.52;24.40;;;5.90;99.90;;;;;;5046511;28;20204;-80
2020/12/01 00:41:40;;;;;;;18.67;16.67;;;5.90;99.90;;;;;;5045694;28;20211;-82
2020/12/01 00:44:06;;;;;;;27.52;22.20;;;6.00;99.90;;;;;;5046474;28;20196;-82
2020/12/01 00:46:33;;;;;;;25.45;20.42;;;6.00;99.90;;;;;;5045906;28;20224;-83
2020/12/01 00:49:00;;;;;;;24.73;20.00;;;6.00;99.90;;;;;;5045870;28;20204;-83
2020/12/01 00:51:28;;;;;;;26.02;21.15;;;6.00;99.90;;;;;;5045474;28;20226;-82
2020/12/01 00:53:54;;;;;;;23.67;20.02;;;6.00;99.90;;;;;;5045125;28;20611;-81
2020/12/01 00:56:22;;;;;;;25.08;18.95;;;6.10;99.90;;;;;;5052384;28;20204;-80
2020/12/01 00:58:49;;;;;;;31.65;23.25;;;6.10;99.90;;;;;;5054662;28;20176;-81
2020/12/01 01:01:15;;;;;;;25.63;20.73;;;6.10;99.90;;;;;;5056488;28;20196;-79
2020/12/01 01:03:42;;;;;;;27.33;21.25;;;6.20;99.90;;;;;;5057602;28;20209;-79
2020/12/01 01:06:11;;;;;;;34.30;23.80;;;6.20;99.90;;;;;;5057397;28;20213;-79
2020/12/01 01:08:39;;;;;;;25.92;21.42;;;6.20;99.90;;;;;;5054076;28;20196;-79
2020/12/01 01:11:06;;;;;;;21.75;19.13;;;6.20;99.90;;;;;;5057453;28;20216;-80
2020/12/01 01:13:32;;;;;;;32.55;24.50;;;6.20;99.90;;;;;;5057449;28;20208;-78
2020/12/01 01:16:00;;;;;;;26.50;22.13;;;6.10;99.90;;;;;;5056220;28;20180;-83
2020/12/01 01:18:27;;;;;;;32.17;24.73;;;6.20;99.90;;;;;;5046241;28;20204;-81
2020/12/01 01:20:54;;;;;;;29.65;22.88;;;6.10;99.90;;;;;;5046014;28;20196;-81
2020/12/01 01:23:21;;;;;;;30.35;24.23;;;6.10;99.90;;;;;;5047884;28;20228;-81
2020/12/01 01:25:48;;;;;;;24.73;21.48;;;6.20;99.90;;;;;;5046434;28;20196;-82
2020/12/01 01:28:17;;;;;;;34.38;26.40;;;6.10;99.90;;;;;;5050229;28;20279;-82
2020/12/01 01:30:43;;;;;;;28.95;23.05;;;6.20;99.90;;;;;;5051603;28;20188;-83
2020/12/01 01:33:12;;;;;;;29.40;21.85;;;6.30;99.90;;;;;;5050827;28;20216;-82
2020/12/01 01:35:39;;;;;;;38.17;26.65;;;6.30;99.90;;;;;;5051412;28;20197;-82
2020/12/01 01:38:07;;;;;;;29.98;24.60;;;6.20;99.90;;;;;;5051946;28;20299;-82
2020/12/01 01:40:35;;;;;;;30.73;24.10;;;6.30;99.90;;;;;;5051924;28;20204;-82
2020/12/01 01:43:03;;;;;;;34.25;24.77;;;6.40;99.90;;;;;;5054220;28;20228;-82
2020/12/01 01:45:39;;;;;;;32.38;25.70;;;6.40;99.90;;;;;;5057919;28;20192;-81
2020/12/01 01:48:21;;;;;;;31.80;26.33;;;6.30;99.90;;;;;;5057100;28;20223;-80
2020/12/01 01:50:56;;;;;;;38.08;29.35;;;6.20;99.90;;;;;;5057922;28;20215;-81
2020/12/01 01:53:22;;;;;;;34.33;26.42;;;6.20;99.90;;;;;;5079209;22;20224;-89
2020/12/01 01:55:54;;;;;;;34.05;25.27;;;6.20;99.90;;;;;;5057260;28;20277;-88
2020/12/01 01:58:24;;;;;;;34.45;27.35;;;6.30;99.90;;;;;;5052624;28;20235;-88
2020/12/01 02:00:58;;;;;;;36.08;27.20;;;6.30;99.90;;;;;;5052752;28;20362;-88
2020/12/01 02:03:32;;;;;;;34.13;24.98;;;6.40;99.90;;;;;;5050442;28;20227;-88
2020/12/01 02:05:59;;;;;;;32.88;26.33;;;6.50;99.90;;;;;;5046903;28;20215;-88
2020/12/01 02:08:27;;;;;;;37.10;27.42;;;6.50;99.90;;;;;;5052252;28;20235;-87
2020/12/01 02:10:57;;;;;;;25.27;21.92;;;6.40;99.90;;;;;;5047771;28;20272;-88
2020/12/01 02:13:36;;;;;;;22.65;19.98;;;6.50;99.90;;;;;;5049877;28;20230;-87
2020/12/01 02:16:04;;;;;;;27.40;23.90;;;6.50;99.90;;;;;;5057783;28;20192;-89
2020/12/01 02:18:36;;;;;;;29.30;23.92;;;6.60;99.90;;;;;;5057552;28;20204;-89
2020/12/01 02:21:20;;;;;;;28.23;22.40;;;6.60;99.90;;;;;;5058770;28;20197;-89
2020/12/01 02:23:47;;;;;;;25.48;22.90;;;6.60;99.90;;;;;;5059459;28;20216;-88
2020/12/01 02:26:15;;;;;;;27.98;23.17;;;6.70;99.90;;;;;;5059386;28;20189;-90
2020/12/01 02:28:43;;;;;;;31.80;23.95;;;6.70;99.90;;;;;;5059331;28;20208;-89
2020/12/01 02:31:10;;;;;;;26.65;22.15;;;6.70;99.90;;;;;;5059428;28;20204;-92
2020/12/01 02:33:37;;;;;;;23.13;20.15;;;6.70;99.90;;;;;;5036000;28;20225;-89
2020/12/01 02:36:04;;;;;;;33.22;25.38;;;6.70;99.90;;;;;;5027913;28;20261;-89
2020/12/01 02:38:31;;;;;;;27.58;22.65;;;6.70;99.90;;;;;;5021864;28;20255;-89
2020/12/01 02:40:57;;;;;;;28.63;23.10;;;6.70;99.90;;;;;;5020008;28;20578;-89
2020/12/01 02:43:25;;;;;;;27.90;24.27;;;6.80;99.90;;;;;;5020186;28;20244;-89
2020/12/01 02:45:53;;;;;;;20.23;18.13;;;6.70;99.90;;;;;;5027212;28;20205;-88
2020/12/01 02:48:20;;;;;;;23.58;20.05;;;6.70;99.90;;;;;;5031964;28;20260;-92
2020/12/01 02:50:47;;;;;;;28.90;22.75;;;6.70;99.90;;;;;;5038269;28;20219;-88
2020/12/01 02:53:14;;;;;;;29.55;23.90;;;6.80;99.90;;;;;;5037321;28;20244;-91
2020/12/01 02:55:40;;;;;;;28.02;22.77;;;6.80;99.90;;;;;;5039221;28;20214;-91
2020/12/01 02:58:07;;;;;;;26.40;21.88;;;6.80;99.90;;;;;;5038707;28;20225;-91
2020/12/01 03:00:35;;;;;;;27.23;21.65;;;6.80;99.90;;;;;;5038660;28;20257;-92
2020/12/01 03:03:04;;;;;;;30.73;22.70;;;6.90;99.90;;;;;;5036869;28;20209;-89
2020/12/01 03:05:33;;;;;;;32.42;24.65;;;6.80;99.90;;;;;;5018595;28;20224;-87
2020/12/01 03:08:00;;;;;;;22.73;17.98;;;6.80;99.90;;;;;;5019074;28;20665;-88
2020/12/01 03:10:26;;;;;;;27.35;20.77;;;6.80;99.90;;;;;;5018302;28;20232;-89
2020/12/01 03:12:53;;;;;;;21.95;19.65;;;6.80;99.90;;;;;;5018331;28;20243;-89
2020/12/01 03:15:20;;;;;;;26.30;21.75;;;6.80;99.90;;;;;;5018562;28;20212;-89
2020/12/01 03:17:49;;;;;;;35.22;24.20;;;6.80;99.90;;;;;;5018482;28;20221;-89
2020/12/01 03:20:16;;;;;;;33.05;25.60;;;6.80;99.90;;;;;;5020905;28;20273;-89
2020/12/01 03:22:43;;;;;;;24.75;21.33;;;6.80;99.90;;;;;;5021956;28;20244;-89
2020/12/01 03:25:11;;;;;;;22.83;20.40;;;6.80;99.90;;;;;;5022431;28;20209;-88
2020/12/01 03:27:38;;;;;;;22.48;19.85;;;6.80;99.90;;;;;;5022404;28;20573;-88
2020/12/01 03:30:07;;;;;;;39.60;25.73;;;6.80;99.90;;;;;;5023372;28;20204;-89
2020/12/01 03:32:34;;;;;;;21.02;18.73;;;6.80;99.90;;;;;;5023489;28;20205;-88
2020/12/01 03:35:03;;;;;;;26.00;20.90;;;6.80;99.90;;;;;;5022176;28;20262;-87
2020/12/01 03:37:30;;;;;;;25.73;20.10;;;6.90;99.90;;;;;;5019788;28;20232;-87
2020/12/01 03:39:57;;;;;;;22.50;20.05;;;7.00;99.90;;;;;;5019771;28;20291;-87
2020/12/01 03:42:24;;;;;;;17.50;15.70;;;7.00;99.90;;;;;;5024598;28;20208;-88
2020/12/01 03:44:51;;;;;;;23.85;21.30;;;7.00;99.90;;;;;;5036707;28;20226;-88
2020/12/01 03:47:18;;;;;;;25.73;19.75;;;7.00;99.90;;;;;;5036352;28;20225;-88
2020/12/01 03:49:45;;;;;;;24.50;19.30;;;7.00;99.90;;;;;;5036085;28;20267;-89
2020/12/01 03:52:13;;;;;;;32.00;21.45;;;7.00;99.90;;;;;;5023035;28;20229;-88
2020/12/01 03:54:40;;;;;;;21.02;18.73;;;6.90;99.90;;;;;;5019832;28;20408;-89
2020/12/01 03:57:07;;;;;;;29.00;21.30;;;7.00;99.90;;;;;;5019249;28;20232;-89
2020/12/01 03:59:35;;;;;;;22.95;18.67;;;6.90;99.90;;;;;;5019393;28;20232;-88
2020/12/01 04:02:02;;;;;;;33.80;21.65;;;7.00;99.90;;;;;;5018107;28;20289;-88
2020/12/01 04:04:29;;;;;;;26.80;22.33;;;7.00;99.90;;;;;;5019116;28;20224;-89
2020/12/01 04:07:00;;;;;;;24.45;18.52;;;6.90;99.90;;;;;;5019038;28;20220;-88
2020/12/01 04:09:34;;;;;;;23.60;19.40;;;7.00;99.90;;;;;;5018216;28;20233;-88
2020/12/01 04:12:02;;;;;;;21.90;18.33;;;7.00;99.90;;;;;;5019703;28;20235;-87
2020/12/01 04:14:30;;;;;;;16.58;14.93;;;7.10;99.90;;;;;;5021379;28;20719;-87
2020/12/01 04:16:57;;;;;;;21.55;19.02;;;7.10;99.90;;;;;;5028277;28;20205;-91
2020/12/01 04:19:24;;;;;;;21.15;18.15;;;7.10;99.90;;;;;;5037783;28;20214;-91
2020/12/01 04:21:51;;;;;;;24.52;19.63;;;7.10;99.90;;;;;;5037722;28;20184;-92
2020/12/01 04:24:18;;;;;;;17.98;14.90;;;7.10;99.90;;;;;;5036989;28;20211;-92
2020/12/01 04:26:46;;;;;;;25.98;19.60;;;7.00;99.90;;;;;;5037271;28;20293;-92
2020/12/01 04:29:13;;;;;;;18.38;16.48;;;7.10;99.90;;;;;;5036199;28;20258;-93
2020/12/01 04:31:44;;;;;;;30.38;22.35;;;7.10;99.90;;;;;;5022403;28;20249;-89
2020/12/01 04:34:11;;;;;;;21.92;18.65;;;7.00;99.90;;;;;;5021082;28;20238;-90
2020/12/01 04:36:38;;;;;;;18.73;16.75;;;7.00;99.90;;;;;;5017952;28;20275;-89
2020/12/01 04:39:05;;;;;;;27.13;19.42;;;7.10;99.90;;;;;;5017766;28;20221;-88
2020/12/01 04:41:32;;;;;;;21.65;18.40;;;7.20;99.90;;;;;;5018661;28;20299;-88
2020/12/01 04:44:01;;;;;;;24.98;20.55;;;7.10;99.90;;;;;;5019501;28;20764;-89
2020/12/01 04:46:31;;;;;;;16.63;14.82;;;7.10;99.90;;;;;;5018195;28;20697;-89
2020/12/01 04:49:05;;;;;;;16.25;14.65;;;7.10;99.90;;;;;;5017874;28;20209;-88
2020/12/01 04:51:49;;;;;;;29.27;20.58;;;7.20;99.90;;;;;;5018301;28;20204;-88
2020/12/01 04:54:30;;;;;;;23.95;18.60;;;7.20;99.90;;;;;;5017659;28;20325;-89
2020/12/01 04:57:22;;;;;;;25.95;19.05;;;7.20;99.90;;;;;;5017723;28;20220;-89
2020/12/01 05:00:08;;;;;;;22.67;18.38;;;7.20;99.90;;;;;;5011224;28;20212;-89
2020/12/01 05:02:51;;;;;;;29.20;20.88;;;7.20;99.90;;;;;;5031335;28;20252;-90
2020/12/01 05:05:39;;;;;;;17.77;15.93;;;7.10;99.90;;;;;;5024303;28;20203;-88
2020/12/01 05:08:38;;;;;;;18.83;15.93;;;7.20;99.90;;;;;;5023123;28;20257;-88
2020/12/01 05:11:14;;;;;;;20.45;16.70;;;7.30;99.90;;;;;;5023531;28;20234;-88
2020/12/01 05:13:41;;;;;;;25.67;20.50;;;7.40;99.90;;;;;;5032433;28;20351;-89
2020/12/01 05:16:30;;;;;;;26.95;19.67;;;7.30;99.90;;;;;;5039232;28;20265;-90
2020/12/01 05:18:57;;;;;;;26.50;19.48;;;7.30;99.90;;;;;;5024055;28;20684;-89
2020/12/01 05:21:27;;;;;;;40.88;23.80;;;7.30;99.90;;;;;;5026513;28;20206;-87
2020/12/01 05:23:55;;;;;;;21.00;18.40;;;7.20;99.90;;;;;;5025580;28;20229;-88
2020/12/01 05:26:23;;;;;;;20.77;18.42;;;7.10;99.90;;;;;;5025193;28;20622;-87
2020/12/01 05:28:57;;;;;;;26.73;20.52;;;7.20;99.90;;;;;;5028487;28;20194;-87
2020/12/01 05:31:39;;;;;;;23.73;19.23;;;7.20;99.90;;;;;;5025395;28;20207;-88
2020/12/01 05:34:16;;;;;;;32.75;24.73;;;7.20;99.90;;;;;;5033480;28;20242;-88
2020/12/01 05:36:43;;;;;;;32.10;24.23;;;7.30;99.90;;;;;;5034933;28;20451;-88
2020/12/01 05:39:19;;;;;;;20.88;18.67;;;7.20;99.90;;;;;;5033810;28;20225;-88
2020/12/01 05:41:48;;;;;;;31.52;23.85;;;7.30;99.90;;;;;;5036302;28;20194;-89
2020/12/01 05:44:18;;;;;;;32.72;24.50;;;7.30;99.90;;;;;;5036407;28;20225;-89
2020/12/01 05:46:51;;;;;;;27.77;20.75;;;7.30;99.90;;;;;;5031453;28;20249;-86
2020/12/01 05:49:34;;;;;;;30.65;22.77;;;7.30;99.90;;;;;;5030552;28;20194;-87
2020/12/01 05:52:05;;;;;;;33.40;22.95;;;7.30;99.90;;;;;;5036615;28;20207;-87
2020/12/01 05:54:38;;;;;;;36.38;25.10;;;7.40;99.90;;;;;;5027779;28;20269;-86
2020/12/01 05:57:18;;;;;;;37.58;24.90;;;7.30;99.90;;;;;;5025066;28;20221;-87
2020/12/01 05:59:56;;;;;;;35.60;23.08;;;7.30;99.90;;;;;;5022435;28;20268;-88
2020/12/01 06:02:35;;;;;;;33.00;23.92;;;7.30;99.90;;;;;;5023351;28;20221;-86
2020/12/01 06:05:02;;;;;;;30.30;21.83;;;7.30;99.90;;;;;;5023688;28;20201;-87
2020/12/01 06:07:30;;;;;;;22.33;18.75;;;7.30;99.90;;;;;;5030070;28;20190;-86
2020/12/01 06:10:26;;;;;;;33.03;24.30;;;7.30;99.90;;;;;;5039323;28;20177;-87
2020/12/01 06:13:10;;;;;;;28.05;22.00;;;7.40;99.90;;;;;;5037920;28;20226;-86
2020/12/01 06:15:47;;;;;;;25.27;20.20;;;7.40;99.90;;;;;;5038513;28;20193;-87
2020/12/01 06:18:25;;;;;;;30.42;21.98;;;7.40;99.90;;;;;;5038883;28;20206;-88
2020/12/01 06:20:56;;;;;;;31.10;21.42;;;7.40;99.90;;;;;;5039735;28;20212;-86
2020/12/01 06:23:50;;;;;;;37.78;24.02;;;7.30;99.90;;;;;;5039901;28;20228;-86
2020/12/01 06:26:58;;;;;;;36.63;23.67;;;7.30;99.90;;;;;;5039448;28;20272;-88
2020/12/01 06:29:56;;;;;;;34.45;23.60;;;7.30;99.90;;;;;;5039298;28;20313;-84
2020/12/01 06:33:02;;;;;;;31.63;21.95;;;7.30;99.90;;;;;;5030845;28;20183;-87
2020/12/01 06:35:49;;;;;;;31.80;23.83;;;7.30;99.90;;;;;;5021658;28;20245;-88
2020/12/01 06:38:27;;;;;;;32.83;24.95;;;7.30;99.90;;;;;;5022374;28;20253;-88
2020/12/01 06:41:00;;;;;;;27.92;21.13;;;7.40;99.90;;;;;;5031463;28;20209;-87
2020/12/01 06:43:34;;;;;;;26.92;20.60;;;7.50;99.90;;;;;;5031512;28;20241;-86
2020/12/01 06:46:01;;;;;;;31.35;24.10;;;7.60;99.90;;;;;;5023401;28;20202;-87
2020/12/01 06:48:32;;;;;;;33.78;24.08;;;7.50;99.90;;;;;;5022040;28;20276;-87
2020/12/01 06:51:02;;;;;;;32.00;22.92;;;7.50;99.90;;;;;;5021301;28;20193;-88
2020/12/01 06:53:31;;;;;;;32.90;23.52;;;7.50;99.90;;;;;;5023874;28;20211;-87
2020/12/01 06:56:00;;;;;;;37.10;23.90;;;7.50;99.90;;;;;;5024647;28;20280;-88
2020/12/01 06:58:39;;;;;;;28.33;21.88;;;7.50;99.90;;;;;;5021315;28;20220;-87
2020/12/01 07:01:12;;;;;;;28.70;21.95;;;7.50;99.90;;;;;;5022289;28;20213;-86
2020/12/01 07:03:39;;;;;;;38.08;24.55;;;7.60;99.90;;;;;;5021374;28;20645;-87
2020/12/01 07:06:12;;;;;;;29.48;23.65;;;7.60;99.90;;;;;;5021613;28;20202;-87
2020/12/01 07:08:38;;;;;;;26.25;20.40;;;7.60;99.90;;;;;;5022467;28;20221;-87
2020/12/01 07:11:10;;;;;;;33.30;23.38;;;7.60;99.90;;;;;;5021755;28;20266;-87
2020/12/01 07:13:45;;;;;;;31.70;22.83;;;7.70;99.90;;;;;;5019914;28;20318;-87
2020/12/01 07:16:24;;;;;;;28.42;22.42;;;7.70;99.90;;;;;;5021129;28;20188;-87
2020/12/01 07:18:56;;;;;;;42.58;28.20;;;7.70;99.90;;;;;;5032610;28;20207;-87
2020/12/01 07:21:30;;;;;;;38.30;24.73;;;7.70;99.90;;;;;;5029822;28;20195;-87
2020/12/01 07:24:05;;;;;;;33.92;23.48;;;7.70;99.90;;;;;;5024618;28;20238;-88
2020/12/01 07:26:39;;;;;;;34.13;24.67;;;7.70;99.90;;;;;;5019366;28;20215;-86
2020/12/01 07:29:27;;;;;;;42.70;27.90;;;7.60;99.90;;;;;;5020954;28;20233;-88
2020/12/01 07:32:05;;;;;;;39.00;27.25;;;7.70;99.90;;;;;;5021148;28;20214;-87
2020/12/01 07:34:33;;;;;;;30.05;22.63;;;7.70;99.90;;;;;;5021701;28;20225;-88
2020/12/01 07:37:31;;;;;;;27.85;20.27;;;7.70;99.90;;;;;;5019889;28;20221;-88
2020/12/01 07:39:59;;;;;;;32.40;23.50;;;7.80;99.90;;;;;;5020434;28;20203;-85
2020/12/01 07:42:30;;;;;;;45.50;30.52;;;7.80;99.90;;;;;;5020531;28;20178;-86
2020/12/01 07:45:01;;;;;;;53.38;30.08;;;7.80;99.90;;;;;;5020986;28;20210;-88
2020/12/01 07:47:29;;;;;;;26.83;21.52;;;7.70;99.90;;;;;;5022993;28;20218;-86
2020/12/01 07:50:02;;;;;;;31.42;23.30;;;7.80;99.90;;;;;;5020892;28;20218;-85
2020/12/01 07:52:34;;;;;;;24.75;19.85;;;7.90;99.90;;;;;;5020387;28;20219;-84
2020/12/01 07:55:07;;;;;;;36.22;25.40;;;7.90;99.90;;;;;;5023017;28;20263;-85
2020/12/01 07:57:33;;;;;;;29.08;21.35;;;8.00;99.90;;;;;;5013601;28;20227;-85
2020/12/01 08:00:02;;;;;;;30.83;22.13;;;8.10;99.90;;;;;;5019750;28;20216;-86
2020/12/01 08:02:32;;;;;;;23.77;20.33;;;8.20;99.90;;;;;;5020001;28;20212;-85
2020/12/01 08:05:00;;;;;;;32.72;23.75;;;8.20;99.90;;;;;;5022616;28;20204;-85
2020/12/01 08:07:26;;;;;;;27.30;21.15;;;8.20;99.90;;;;;;5021187;28;20322;-85
2020/12/01 08:10:05;;;;;;;25.20;20.30;;;8.30;99.90;;;;;;5021631;28;20256;-85
2020/12/01 08:12:35;;;;;;;28.88;22.85;;;8.40;99.90;;;;;;5021393;28;20211;-87
2020/12/01 08:15:04;;;;;;;22.20;17.13;;;8.40;99.90;;;;;;5020597;28;20212;-84
2020/12/01 08:17:34;;;;;;;20.10;17.65;;;8.50;99.90;;;;;;5018336;28;20234;-85
2020/12/01 08:20:02;;;;;;;34.30;23.98;;;8.50;99.90;;;;;;5019350;28;20562;-85
2020/12/01 08:22:36;;;;;;;27.27;21.08;;;8.50;99.90;;;;;;5020342;28;20208;-87
2020/12/01 08:25:06;;;;;;;26.48;20.60;;;8.50;99.90;;;;;;5021544;28;20203;-84
2020/12/01 08:27:40;;;;;;;31.02;22.38;;;8.60;99.90;;;;;;5021864;28;20461;-85
2020/12/01 08:30:18;;;;;;;37.13;22.17;;;8.60;99.90;;;;;;5019227;28;20274;-85
2020/12/01 08:32:47;;;;;;;21.08;18.77;;;8.60;99.90;;;;;;5019964;28;20556;-85
2020/12/01 08:35:21;;;;;;;24.83;19.50;;;8.60;99.90;;;;;;5022402;28;20299;-86
2020/12/01 08:38:02;;;;;;;29.85;22.50;;;8.70;99.90;;;;;;5024545;28;20228;-85
2020/12/01 08:40:37;;;;;;;33.33;24.33;;;8.70;99.90;;;;;;5030914;28;20207;-85
2020/12/01 08:43:20;;;;;;;32.58;24.83;;;8.60;99.90;;;;;;5032765;28;20231;-84
2020/12/01 08:45:53;;;;;;;39.15;26.00;;;8.50;99.90;;;;;;5026449;28;20207;-86
2020/12/01 08:48:27;;;;;;;30.58;20.67;;;8.50;99.90;;;;;;5018104;28;20225;-85
2020/12/01 08:51:08;;;;;;;37.65;25.60;;;8.50;99.90;;;;;;5019406;28;20347;-85
2020/12/01 08:53:45;;;;;;;36.20;25.33;;;8.50;99.90;;;;;;5019239;28;20240;-86
2020/12/01 08:56:30;;;;;;;25.88;20.00;;;8.70;99.90;;;;;;5018795;28;20253;-85
2020/12/01 08:59:04;;;;;;;22.33;19.77;;;8.70;99.90;;;;;;5019505;28;20247;-85
2020/12/01 09:01:40;;;;;;;21.88;19.00;;;8.60;99.90;;;;;;5019879;28;20208;-85
2020/12/01 09:04:19;;;;;;;32.00;23.48;;;8.80;99.90;;;;;;5026965;28;20253;-86
2020/12/01 09:06:46;;;;;;;40.88;25.80;;;8.80;99.90;;;;;;5029377;28;20253;-86
2020/12/01 09:09:18;;;;;;;39.25;26.98;;;8.70;99.90;;;;;;5018615;28;20274;-85
2020/12/01 09:12:11;;;;;;;38.10;26.58;;;8.70;99.90;;;;;;5018401;28;20293;-84
2020/12/01 09:15:01;;;;;;;31.00;22.80;;;8.60;99.90;;;;;;5018221;28;20239;-85
2020/12/01 09:17:39;;;;;;;31.15;20.13;;;8.70;99.90;;;;;;5021049;28;20217;-85
2020/12/01 09:23:11;;;;;;;38.35;24.38;;;8.80;99.90;;;;;;5018467;28;20228;-86
2020/12/01 09:25:38;;;;;;;43.88;26.33;;;8.90;99.90;;;;;;5019858;28;20203;-85
2020/12/01 09:28:12;;;;;;;44.33;26.25;;;8.80;99.90;;;;;;5019607;28;20212;-85
2020/12/01 09:30:41;;;;;;;42.42;26.48;;;8.80;99.90;;;;;;5027957;28;20187;-86
2020/12/01 09:33:12;;;;;;;29.30;21.05;;;8.70;99.90;;;;;;5025195;28;20233;-84
2020/12/01 09:35:39;;;;;;;28.65;21.23;;;8.80;99.90;;;;;;5027356;28;20199;-84
2020/12/01 09:38:06;;;;;;;30.65;22.50;;;8.90;99.90;;;;;;5026737;28;20239;-85
2020/12/01 09:40:35;;;;;;;37.17;25.35;;;9.00;99.90;;;;;;5025267;28;20215;-85
2020/12/01 09:43:06;;;;;;;26.27;18.63;;;8.90;99.90;;;;;;5024752;28;20228;-86
2020/12/01 09:45:33;;;;;;;23.42;19.30;;;8.90;99.90;;;;;;5027015;28;20191;-85
2020/12/01 09:48:06;;;;;;;28.13;20.42;;;9.10;99.90;;;;;;5019728;28;20208;-85
2020/12/01 09:50:36;;;;;;;32.22;22.27;;;9.10;99.90;;;;;;5022588;28;20204;-85
2020/12/01 09:58:55;;;;;;;31.05;22.00;;;9.10;99.90;;;;;;5007971;28;20236;-85
2020/12/01 10:09:44;;;;;;;30.13;21.98;;;9.30;99.90;;;;;;5023318;28;20270;-85
2020/12/01 10:12:17;;;;;;;25.65;18.77;;;9.20;99.90;;;;;;5031611;28;20296;-85
2020/12/01 10:26:05;;;;;;;19.58;16.20;;;9.10;99.90;;;;;;5023692;28;20617;-85
2020/12/01 10:36:53;;;;;;;16.17;14.48;;;9.00;99.90;;;;;;5021113;28;20202;-86
2020/12/01 10:39:21;;;;;;;22.52;15.38;;;9.00;99.90;;;;;;5022199;28;20228;-85
2020/12/01 10:41:48;;;;;;;19.45;14.18;;;9.10;99.90;;;;;;5021295;28;20635;-85
2020/12/01 10:44:14;;;;;;;17.73;13.82;;;9.10;99.90;;;;;;5020811;28;20233;-85
2020/12/01 10:46:44;;;;;;;18.77;15.10;;;9.00;99.90;;;;;;5020938;28;20238;-85
2020/12/01 10:49:11;;;;;;;21.42;16.48;;;8.90;99.90;;;;;;5020107;28;20196;-85
2020/12/01 10:51:38;;;;;;;22.70;16.25;;;9.00;99.90;;;;;;5020608;28;20587;-85
2020/12/01 10:54:04;;;;;;;18.08;13.00;;;9.10;99.90;;;;;;5022554;28;20262;-85
2020/12/01 10:56:32;;;;;;;23.20;15.32;;;9.20;99.90;;;;;;5020075;28;20565;-86
2020/12/01 10:58:58;;;;;;;17.52;14.18;;;9.10;99.90;;;;;;5024476;28;20228;-87
2020/12/01 11:01:25;;;;;;;24.65;15.73;;;9.30;99.90;;;;;;5022618;28;20212;-86
2020/12/01 11:03:51;;;;;;;14.85;12.35;;;9.30;99.90;;;;;;5023846;28;20221;-84
2020/12/01 11:06:18;;;;;;;14.82;11.75;;;9.40;99.90;;;;;;5028740;28;20208;-85
2020/12/01 11:08:44;;;;;;;14.30;12.05;;;9.40;99.90;;;;;;5029670;28;20320;-85
2020/12/01 11:11:16;;;;;;;11.63;10.07;;;9.50;99.90;;;;;;5027194;28;20277;-86
2020/12/01 11:13:44;;;;;;;13.68;10.93;;;9.50;99.90;;;;;;5029794;28;20232;-85
2020/12/01 11:16:10;;;;;;;9.82;8.77;;;9.50;99.90;;;;;;5028638;28;20216;-85
2020/12/01 11:18:37;;;;;;;8.63;7.22;;;9.50;99.90;;;;;;5031906;28;20224;-85
2020/12/01 11:21:04;;;;;;;9.02;8.15;;;9.40;99.90;;;;;;5032961;28;20205;-86
2020/12/01 11:23:31;;;;;;;8.95;8.05;;;9.40;99.90;;;;;;5031811;28;20250;-85
2020/12/01 11:25:57;;;;;;;9.38;8.40;;;9.30;99.90;;;;;;5027881;28;20205;-85
2020/12/01 11:28:24;;;;;;;9.05;8.15;;;9.20;99.90;;;;;;5035272;28;20250;-85
2020/12/01 11:30:51;;;;;;;9.20;6.95;;;9.20;99.90;;;;;;5028904;28;20335;-85
2020/12/01 11:33:18;;;;;;;11.30;8.70;;;9.10;99.90;;;;;;5023355;28;20236;-85
2020/12/01 11:35:44;;;;;;;9.05;7.95;;;9.00;99.90;;;;;;5019707;28;20280;-85
2020/12/01 11:38:11;;;;;;;9.82;8.82;;;9.00;99.90;;;;;;5019827;28;20220;-85
2020/12/01 11:40:37;;;;;;;8.80;7.90;;;8.90;99.90;;;;;;5021613;28;20594;-84
2020/12/01 11:43:04;;;;;;;8.85;7.95;;;8.90;99.90;;;;;;5020871;28;20232;-84
2020/12/01 11:45:31;;;;;;;10.05;8.75;;;8.90;99.90;;;;;;5020974;28;20208;-85
2020/12/01 11:47:58;;;;;;;10.13;9.10;;;8.90;99.90;;;;;;5020202;28;20209;-85
2020/12/01 11:50:24;;;;;;;11.73;9.10;;;8.90;99.90;;;;;;5020644;28;20200;-85
2020/12/01 11:52:51;;;;;;;9.80;8.80;;;8.90;99.90;;;;;;5019041;28;20241;-85
2020/12/01 11:55:17;;;;;;;10.30;8.98;;;8.90;99.90;;;;;;5021149;28;20197;-85
2020/12/01 11:57:44;;;;;;;9.63;8.63;;;9.00;99.90;;;;;;5020422;28;20232;-86
2020/12/01 12:00:16;;;;;;;11.25;9.98;;;9.00;99.90;;;;;;5021712;28;20212;-86
2020/12/01 12:02:43;;;;;;;14.18;11.32;;;8.90;99.90;;;;;;5019233;28;20647;-87
2020/12/01 12:05:10;;;;;;;11.77;9.93;;;8.90;99.90;;;;;;5019498;28;20275;-85
2020/12/01 12:07:37;;;;;;;10.60;9.27;;;8.80;99.90;;;;;;5019421;28;20195;-84
2020/12/01 12:10:05;;;;;;;10.63;8.98;;;8.80;99.90;;;;;;5019384;28;20300;-84
2020/12/01 12:12:31;;;;;;;10.68;9.52;;;8.80;99.90;;;;;;5020738;28;20223;-85
2020/12/01 12:14:58;;;;;;;10.82;9.82;;;8.80;99.90;;;;;;5020481;28;20672;-86
2020/12/01 12:17:24;;;;;;;13.73;11.05;;;8.80;99.90;;;;;;5018577;28;20657;-85
2020/12/01 12:19:51;;;;;;;14.63;12.10;;;8.70;99.90;;;;;;5019983;28;20207;-85
2020/12/01 12:22:18;;;;;;;12.55;10.60;;;8.70;99.90;;;;;;5020207;28;20242;-85
2020/12/01 12:24:45;;;;;;;12.05;9.65;;;8.70;99.90;;;;;;5030577;28;20238;-86
2020/12/01 12:27:11;;;;;;;13.75;11.95;;;8.60;99.90;;;;;;5036386;28;20208;-85
2020/12/01 12:29:39;;;;;;;12.20;10.60;;;8.60;99.90;;;;;;5034961;28;20218;-86
2020/12/01 12:32:06;;;;;;;13.50;10.10;;;8.70;99.90;;;;;;5036036;28;20207;-84
2020/12/01 12:34:32;;;;;;;16.20;11.02;;;8.60;99.90;;;;;;5031309;28;20258;-85
2020/12/01 12:36:59;;;;;;;11.52;9.95;;;8.60;99.90;;;;;;5021705;28;20204;-85
2020/12/01 12:39:32;;;;;;;17.20;12.23;;;8.50;99.90;;;;;;5022861;28;20227;-85
2020/12/01 12:41:59;;;;;;;12.27;10.52;;;8.50;99.90;;;;;;5031682;28;20210;-86
2020/12/01 12:44:25;;;;;;;13.40;11.32;;;8.50;99.90;;;;;;5035860;28;20262;-85
2020/12/01 12:46:52;;;;;;;13.43;10.55;;;8.50;99.90;;;;;;5035991;28;20204;-85
2020/12/01 12:49:18;;;;;;;12.73;10.50;;;8.40;99.90;;;;;;5035639;28;20192;-86
2020/12/01 12:51:45;;;;;;;14.70;12.02;;;8.40;99.90;;;;;;5035854;28;20204;-87
2020/12/01 12:54:11;;;;;;;11.88;10.30;;;8.30;99.90;;;;;;5035427;28;20235;-85
2020/12/01 12:56:39;;;;;;;13.65;10.13;;;8.20;99.90;;;;;;5035733;28;20196;-86
2020/12/01 12:59:05;;;;;;;11.68;10.43;;;8.10;99.90;;;;;;5029099;28;20231;-86
2020/12/01 13:01:32;;;;;;;14.60;12.15;;;8.10;99.90;;;;;;5020031;28;20210;-86
2020/12/01 13:03:58;;;;;;;13.57;10.13;;;8.00;99.90;;;;;;5021413;28;20234;-86
2020/12/01 13:06:25;;;;;;;11.88;9.75;;;7.90;99.90;;;;;;5028206;28;20291;-85
2020/12/01 13:08:51;;;;;;;14.70;10.95;;;7.90;99.90;;;;;;5029380;28;20204;-85
2020/12/01 13:11:18;;;;;;;17.45;12.90;;;7.90;99.90;;;;;;5029816;28;20288;-86
2020/12/01 13:13:45;;;;;;;13.77;11.30;;;7.90;99.90;;;;;;5025193;28;20232;-86
2020/12/01 13:16:14;;;;;;;12.90;11.02;;;7.90;99.90;;;;;;5020012;28;20238;-84
2020/12/01 13:18:41;;;;;;;19.85;14.38;;;7.90;99.90;;;;;;5019070;28;20401;-85
2020/12/01 13:21:07;;;;;;;18.88;13.77;;;7.80;99.90;;;;;;5020027;28;20334;-85
2020/12/01 13:23:34;;;;;;;15.90;12.82;;;7.80;99.90;;;;;;5020652;28;20227;-85
2020/12/01 13:26:00;;;;;;;21.17;16.33;;;7.80;99.90;;;;;;5022687;28;20578;-85
2020/12/01 13:28:27;;;;;;;24.42;15.13;;;7.70;99.90;;;;;;5023724;28;20214;-85
2020/12/01 13:30:54;;;;;;;19.05;14.25;;;7.70;99.90;;;;;;5022868;28;20217;-85